Bookmark and Share
Track history (hours):
 

Jrs Merkur

Last reported at 2014-Apr-11 01:20 UTC. Time now 2014-Apr-16 05:18 UTC.
Position N 36°44' E 005°11'.

Length 107 m; draft 8.3 m.

Type: Cargo ship. MMSI: 305644000.

NotesDate/timePositionNaut miles runAvg speedWind from/ knotsBaromVisibWave heightAir tempDewpointWater temp
2014-Apr-11 01:20N 36°44' E 005°11'  
2014-Apr-03 11:33N 35°60' W 005°07'1413.7
2014-Apr-03 10:33N 35°58' W 005°24'1313.2
2014-Apr-03 09:33N 35°55' W 005°40'1412.3
2014-Apr-03 08:24N 35°54' W 005°57'191 7.9
2014-Apr-02 08:21N 37°29' W 009°23'7 8.4
2014-Apr-02 07:34N 37°36' W 009°20'9 8.6
2014-Apr-02 06:33N 37°44' W 009°17'8 8.4
2014-Apr-02 05:33N 37°52' W 009°14'8 8.4
2014-Apr-02 04:34N 37°60' W 009°10'9 8.6
2014-Apr-02 03:33N 38°08' W 009°07'8 8.4
2014-Apr-02 02:33N 38°16' W 009°04'8 8.2
2014-Apr-02 01:33N 38°24' W 009°01'8 7.9
2014-Apr-02 00:33N 38°30' W 008°55'2 0.2
2014-Apr-01 17:22N 38°31' W 008°53'0 0.0
2014-Apr-01 11:16N 38°31' W 008°53'0 0.0
2014-Apr-01 08:16N 38°31' W 008°53'0 0.0
2014-Apr-01 06:04N 38°31' W 008°53'0 0.0
2014-Apr-01 05:10N 38°31' W 008°53'0 0.0
2014-Apr-01 01:28N 38°31' W 008°53'  

Dump ship's entire track history

sailing weather and tide predictions

Jrs Merkur — V2FD8 — position and weather